createdAt,value
2019-04-14T00:00:07.543Z,79.67
2019-04-14T00:02:49.152Z,72.57
2019-04-14T00:05:21.011Z,71.70
2019-04-14T00:07:51.766Z,66.87
2019-04-14T00:10:23.193Z,74.57
2019-04-14T00:12:55.673Z,68.63
2019-04-14T00:15:32.967Z,75.63
2019-04-14T00:17:58.968Z,66.07
2019-04-14T00:20:29.727Z,64.27
2019-04-14T00:23:00.215Z,71.20
2019-04-14T00:25:30.745Z,76.93
2019-04-14T00:28:01.329Z,75.50
2019-04-14T00:30:31.870Z,75.33
2019-04-14T00:33:06.187Z,72.50
2019-04-14T00:35:55.929Z,72.80
2019-04-14T00:38:39.095Z,75.87
2019-04-14T00:41:47.232Z,69.40
2019-04-14T00:44:32.647Z,68.73
2019-04-14T00:47:11.440Z,66.60
2019-04-14T00:49:42.064Z,69.00
2019-04-14T00:52:12.721Z,64.00
2019-04-14T00:54:43.498Z,67.00
2019-04-14T00:57:14.122Z,69.00
2019-04-14T00:59:44.789Z,67.80
2019-04-14T01:02:15.257Z,69.43
2019-04-14T01:04:46.619Z,68.70
2019-04-14T01:07:19.494Z,66.03
2019-04-14T01:09:51.037Z,64.07
2019-04-14T01:12:21.764Z,62.80
2019-04-14T01:14:52.306Z,64.20
2019-04-14T01:17:24.477Z,63.73
2019-04-14T01:19:55.163Z,62.23
2019-04-14T01:22:25.640Z,65.67
2019-04-14T01:24:56.090Z,62.47
2019-04-14T01:27:27.664Z,63.73
2019-04-14T01:29:58.316Z,63.33
2019-04-14T01:32:28.943Z,66.40
2019-04-14T01:34:59.450Z,62.67
2019-04-14T01:37:31.089Z,60.73
2019-04-14T01:40:05.217Z,62.53
2019-04-14T01:42:35.773Z,59.33
2019-04-14T01:45:07.961Z,59.03
2019-04-14T01:47:39.875Z,61.67
2019-04-14T01:50:10.542Z,59.93
2019-04-14T01:53:09.680Z,57.17
2019-04-14T01:56:08.321Z,54.53
2019-04-14T01:58:46.888Z,54.83
2019-04-14T02:01:26.638Z,56.17
2019-04-14T02:03:58.404Z,56.13
2019-04-14T02:06:29.006Z,51.93
2019-04-14T02:08:59.523Z,53.10
2019-04-14T02:11:31.253Z,51.67
2019-04-14T02:14:01.981Z,50.47
2019-04-14T02:16:39.724Z,49.50
2019-04-14T02:19:05.198Z,50.43
2019-04-14T02:21:36.661Z,48.07
2019-04-14T02:24:09.250Z,48.70
2019-04-14T02:26:41.605Z,48.70
2019-04-14T02:29:12.242Z,49.23
2019-04-14T02:32:13.700Z,49.50
2019-04-14T02:34:47.968Z,49.27
2019-04-14T02:37:26.649Z,49.27
2019-04-14T02:39:54.291Z,48.07
2019-04-14T02:47:47.276Z,54.77
2019-04-14T02:52:30.091Z,54.03
2019-04-14T02:54:59.923Z,49.03
2019-04-14T02:57:30.475Z,48.20
2019-04-14T03:05:01.834Z,45.80
2019-04-14T03:10:19.606Z,43.00
2019-04-14T03:12:46.447Z,43.63
2019-04-14T03:15:25.323Z,42.33
2019-04-14T03:21:38.173Z,42.23
2019-04-14T03:24:09.376Z,39.17
2019-04-14T03:26:54.164Z,39.20
2019-04-14T03:29:28.867Z,39.50
2019-04-14T03:32:15.137Z,38.40
2019-04-14T03:37:30.559Z,37.47
2019-04-14T03:39:38.590Z,39.37
2019-04-14T03:42:08.572Z,37.77
2019-04-14T03:47:21.795Z,36.70
2019-04-14T03:49:45.035Z,35.33
2019-04-14T03:52:27.153Z,37.67
2019-04-14T03:54:44.126Z,33.77
2019-04-14T03:57:00.172Z,34.13
2019-04-14T03:59:30.710Z,32.07
2019-04-14T04:02:01.258Z,33.37
2019-04-14T04:04:31.764Z,31.63
2019-04-14T04:07:02.309Z,33.20
2019-04-14T04:09:36.549Z,32.57
2019-04-14T04:12:07.476Z,32.83
2019-04-14T04:14:38.176Z,31.23
2019-04-14T04:17:27.523Z,31.77
2019-04-14T04:20:03.207Z,31.60
2019-04-14T04:22:52.350Z,32.93
2019-04-14T04:25:40.701Z,32.47
2019-04-14T04:28:28.495Z,32.73
2019-04-14T04:31:04.532Z,31.47
2019-04-14T04:33:52.301Z,30.70
2019-04-14T04:36:48.684Z,29.70
2019-04-14T04:39:22.179Z,30.97
2019-04-14T04:41:53.701Z,30.10
2019-04-14T04:44:24.784Z,29.50
2019-04-14T04:46:55.459Z,30.77
2019-04-14T04:49:28.944Z,30.80
2019-04-14T04:51:58.051Z,31.70
2019-04-14T04:54:28.607Z,30.50
2019-04-14T04:57:00.130Z,30.70
2019-04-14T04:59:30.660Z,31.23
2019-04-14T05:02:01.160Z,32.63
2019-04-14T05:04:32.741Z,31.10
2019-04-14T05:07:03.735Z,27.20
2019-04-14T05:10:08.848Z,28.57
2019-04-14T05:13:01.259Z,28.03
2019-04-14T05:15:51.099Z,26.40
2019-04-14T05:18:26.768Z,26.43
2019-04-14T05:20:57.480Z,25.03
2019-04-14T05:23:28.032Z,25.40
2019-04-14T05:25:58.605Z,23.77
2019-04-14T05:28:31.022Z,24.80
2019-04-14T05:31:03.227Z,23.97
2019-04-14T05:33:33.883Z,24.27
2019-04-14T05:36:04.400Z,23.87
2019-04-14T05:38:35.791Z,23.37
2019-04-14T05:41:07.179Z,22.70
2019-04-14T05:43:45.429Z,22.93
2019-04-14T05:46:10.021Z,24.03
2019-04-14T05:48:40.565Z,24.93
2019-04-14T05:51:11.071Z,24.30
2019-04-14T05:53:41.601Z,24.17
2019-04-14T05:56:12.214Z,24.00
2019-04-14T05:58:44.736Z,24.23
2019-04-14T06:01:16.075Z,24.20
2019-04-14T06:03:47.521Z,24.53
2019-04-14T06:06:18.083Z,25.13
2019-04-14T06:08:48.665Z,23.33
2019-04-14T06:11:19.278Z,25.33
2019-04-14T06:13:49.768Z,24.07
2019-04-14T06:16:20.269Z,24.00
2019-04-14T06:18:53.945Z,25.37
2019-04-14T06:21:24.526Z,24.20
2019-04-14T06:23:57.328Z,25.93
2019-04-14T06:26:27.990Z,21.60
2019-04-14T06:28:58.718Z,22.30
2019-04-14T06:31:42.596Z,19.73
2019-04-14T06:34:21.017Z,20.47
2019-04-14T06:37:08.319Z,19.37
2019-04-14T06:39:42.164Z,20.03
2019-04-14T06:42:12.807Z,22.27
2019-04-14T06:44:43.338Z,20.93
2019-04-14T06:47:13.864Z,19.37
2019-04-14T06:49:49.061Z,19.30
2019-04-14T06:52:18.894Z,21.87
2019-04-14T06:54:49.447Z,20.53
2019-04-14T06:57:20.004Z,19.90
2019-04-14T06:59:50.448Z,21.07
2019-04-14T07:02:20.937Z,22.03
2019-04-14T07:04:51.494Z,20.23
2019-04-14T07:07:23.230Z,18.37
2019-04-14T07:09:53.746Z,20.17
2019-04-14T07:12:24.254Z,20.60
2019-04-14T07:14:54.848Z,20.03
2019-04-14T07:17:25.434Z,20.10
2019-04-14T07:20:01.953Z,19.57
2019-04-14T07:22:28.132Z,18.97
2019-04-14T07:24:58.740Z,18.20
2019-04-14T07:27:29.274Z,18.43
2019-04-14T07:30:33.722Z,16.37
2019-04-14T07:33:23.246Z,18.83
2019-04-14T07:36:11.444Z,18.80
2019-04-14T07:38:48.484Z,18.30
2019-04-14T07:41:32.742Z,18.70
2019-04-14T07:44:14.887Z,17.50
2019-04-14T07:46:57.238Z,17.00
2019-04-14T07:49:40.436Z,19.13
2019-04-14T07:52:24.252Z,18.93
2019-04-14T07:55:03.577Z,18.03
2019-04-14T07:57:56.099Z,18.10
2019-04-14T08:00:39.763Z,17.87
2019-04-14T08:03:29.298Z,19.37
2019-04-14T08:05:59.870Z,17.67
2019-04-14T08:08:30.475Z,17.37
2019-04-14T08:11:01.037Z,18.23
2019-04-14T08:13:31.656Z,17.60
2019-04-14T08:16:02.256Z,18.23
2019-04-14T08:18:32.835Z,18.30
2019-04-14T08:21:03.342Z,18.03
2019-04-14T08:23:37.613Z,17.73
2019-04-14T08:26:08.153Z,17.33
2019-04-14T08:28:41.184Z,16.93
2019-04-14T08:31:11.753Z,17.13
2019-04-14T08:33:43.651Z,18.80
2019-04-14T08:36:14.278Z,18.57
2019-04-14T08:38:44.854Z,18.83
2019-04-14T08:41:15.455Z,17.77
2019-04-14T08:44:17.204Z,18.17
2019-04-14T08:47:09.908Z,17.13
2019-04-14T08:49:59.470Z,18.20
2019-04-14T08:52:38.028Z,17.33
2019-04-14T08:55:21.078Z,16.50
2019-04-14T08:57:59.031Z,18.03
2019-04-14T09:00:38.148Z,18.10
2019-04-14T09:03:26.522Z,22.87
2019-04-14T09:06:19.510Z,21.43
2019-04-14T09:09:17.936Z,18.40
2019-04-14T09:12:00.483Z,18.23
2019-04-14T09:14:31.135Z,19.63
2019-04-14T09:17:01.680Z,20.57
2019-04-14T09:19:32.505Z,18.47
2019-04-14T09:22:03.218Z,16.30
2019-04-14T09:24:33.673Z,16.70
2019-04-14T09:27:04.743Z,15.80
2019-04-14T09:29:37.571Z,14.93
2019-04-14T09:32:11.095Z,14.43
2019-04-14T09:34:41.626Z,14.97
2019-04-14T09:37:12.347Z,17.30
2019-04-14T09:39:43.303Z,17.70
2019-04-14T09:42:14.977Z,15.37
2019-04-14T09:44:45.630Z,16.30
2019-04-14T09:47:16.265Z,15.83
2019-04-14T09:49:46.935Z,15.20
2019-04-14T09:52:17.402Z,16.20
2019-04-14T09:54:48.063Z,16.20
2019-04-14T09:57:18.817Z,15.87
2019-04-14T09:59:50.542Z,14.43
2019-04-14T10:02:21.119Z,14.97
2019-04-14T10:04:53.113Z,15.43
2019-04-14T10:07:23.603Z,15.20
2019-04-14T10:09:54.235Z,14.70
2019-04-14T10:12:24.745Z,16.23
2019-04-14T10:14:55.385Z,14.73
2019-04-14T10:17:26.066Z,15.67
2019-04-14T10:19:56.557Z,14.67
2019-04-14T10:22:33.806Z,14.97
2019-04-14T10:24:59.685Z,15.70
2019-04-14T10:27:30.214Z,15.00
2019-04-14T10:30:00.700Z,16.43
2019-04-14T10:32:31.476Z,15.47
2019-04-14T10:35:02.093Z,14.30
2019-04-14T10:37:33.742Z,14.17
2019-04-14T10:40:06.215Z,15.73
2019-04-14T10:42:36.975Z,14.23
2019-04-14T10:45:07.736Z,15.77
2019-04-14T10:47:38.621Z,15.77
2019-04-14T10:50:10.777Z,15.67
2019-04-14T10:52:42.379Z,14.30
2019-04-14T10:55:15.326Z,15.50
2019-04-14T10:57:45.924Z,16.73
2019-04-14T11:00:17.477Z,15.10
2019-04-14T11:02:48.233Z,15.83
2019-04-14T11:05:20.267Z,14.83
2019-04-14T11:07:51.275Z,16.10
2019-04-14T11:10:21.912Z,15.00
2019-04-14T11:12:54.956Z,15.83
2019-04-14T11:15:26.537Z,16.23
2019-04-14T11:17:57.215Z,14.83
2019-04-14T11:20:27.729Z,16.03
2019-04-14T11:23:03.597Z,16.67
2019-04-14T11:25:30.309Z,16.53
2019-04-14T11:28:00.833Z,16.03
2019-04-14T11:30:31.365Z,14.60
2019-04-14T11:33:10.984Z,16.37
2019-04-14T11:35:59.100Z,15.80
2019-04-14T11:38:35.926Z,15.87
2019-04-14T11:41:10.962Z,15.33
2019-04-14T11:43:42.784Z,15.97
2019-04-14T11:46:13.420Z,16.57
2019-04-14T11:48:44.037Z,16.40
2019-04-14T11:51:16.955Z,14.47
2019-04-14T11:53:47.504Z,15.53
2019-04-14T11:56:18.075Z,14.90
2019-04-14T11:58:48.666Z,14.57
2019-04-14T12:01:44.472Z,14.50
2019-04-14T12:04:46.130Z,14.20
2019-04-14T12:07:34.424Z,14.47
2019-04-14T12:10:08.566Z,13.57
2019-04-14T12:12:39.179Z,15.30
2019-04-14T12:15:16.165Z,14.50
2019-04-14T12:17:42.248Z,14.50
2019-04-14T12:20:14.348Z,13.60
2019-04-14T12:22:44.879Z,14.43
2019-04-14T12:25:15.629Z,13.43
2019-04-14T12:27:46.591Z,13.37
2019-04-14T12:30:18.038Z,11.07
2019-04-14T12:32:48.686Z,12.20
2019-04-14T12:35:19.982Z,12.80
2019-04-14T12:37:50.681Z,12.73
2019-04-14T12:40:21.143Z,11.90
2019-04-14T12:43:14.410Z,11.97
2019-04-14T12:46:02.463Z,12.13
2019-04-14T12:48:51.923Z,12.10
2019-04-14T12:51:27.819Z,11.97
2019-04-14T12:53:58.317Z,12.83
2019-04-14T12:56:29.835Z,13.73
2019-04-14T12:59:19.263Z,12.07
2019-04-14T13:02:07.277Z,11.30
2019-04-14T13:04:37.837Z,11.70
2019-04-14T13:07:08.431Z,9.63
2019-04-14T13:09:39.003Z,12.27
2019-04-14T13:12:10.404Z,11.83
2019-04-14T13:14:41.100Z,11.27
2019-04-14T13:17:11.700Z,11.50
2019-04-14T13:19:42.227Z,11.67
2019-04-14T13:22:13.864Z,11.57
2019-04-14T13:24:44.415Z,11.73
2019-04-14T13:27:14.982Z,11.80
2019-04-14T13:29:45.519Z,11.07
2019-04-14T13:32:16.261Z,11.47
2019-04-14T13:34:46.969Z,12.00
2019-04-14T13:37:17.538Z,12.23
2019-04-14T13:39:48.159Z,11.93
2019-04-14T13:42:19.888Z,11.00
2019-04-14T13:44:50.359Z,10.77
2019-04-14T13:47:20.939Z,11.40
2019-04-14T13:49:52.165Z,11.30
2019-04-14T13:52:22.670Z,12.10
2019-04-14T13:54:53.123Z,11.37
2019-04-14T13:57:23.715Z,11.63
2019-04-14T13:59:54.153Z,11.83
2019-04-14T14:02:26.832Z,10.03
2019-04-14T14:04:57.351Z,10.97
2019-04-14T14:07:27.959Z,12.13
2019-04-14T14:09:58.544Z,11.87
2019-04-14T14:12:39.988Z,10.63
2019-04-14T14:15:47.941Z,11.83
2019-04-14T14:18:31.471Z,11.67
2019-04-14T14:21:19.763Z,10.77
2019-04-14T14:24:12.680Z,12.27
2019-04-14T14:26:43.584Z,11.50
2019-04-14T14:29:14.245Z,11.73
2019-04-14T14:31:44.707Z,11.03
2019-04-14T14:34:15.371Z,11.77
2019-04-14T14:36:45.835Z,11.40
2019-04-14T14:39:19.720Z,11.20
2019-04-14T14:41:50.365Z,11.23
2019-04-14T14:44:22.535Z,11.93
2019-04-14T14:46:58.552Z,11.33
2019-04-14T14:49:53.999Z,11.70
2019-04-14T14:52:24.669Z,11.50
2019-04-14T14:54:55.265Z,11.63
2019-04-14T14:57:25.778Z,11.23
2019-04-14T14:59:56.395Z,11.87
2019-04-14T15:02:26.885Z,11.03
2019-04-14T15:04:57.518Z,11.20
2019-04-14T15:07:28.045Z,11.37
2019-04-14T15:09:58.671Z,11.23
2019-04-14T15:12:29.296Z,9.47
2019-04-14T15:14:59.883Z,10.07
2019-04-14T15:17:30.401Z,10.90
2019-04-14T15:20:00.995Z,10.63
2019-04-14T15:22:31.547Z,10.73
2019-04-14T15:25:02.076Z,11.67
2019-04-14T15:27:32.661Z,10.03
2019-04-14T15:30:03.650Z,9.90
2019-04-14T15:32:34.241Z,10.67
2019-04-14T15:35:06.509Z,10.37
2019-04-14T15:37:37.089Z,11.27
2019-04-14T15:40:08.509Z,10.23
2019-04-14T15:42:39.991Z,10.10
2019-04-14T15:45:13.878Z,9.77
2019-04-14T15:47:43.822Z,10.77
2019-04-14T15:50:14.599Z,10.87
2019-04-14T15:52:46.176Z,10.67
2019-04-14T15:55:18.055Z,10.87
2019-04-14T15:58:06.130Z,9.43
2019-04-14T16:01:04.773Z,11.03
2019-04-14T16:03:46.495Z,10.40
2019-04-14T16:06:30.005Z,10.07
2019-04-14T16:09:25.521Z,9.97
2019-04-14T16:12:17.735Z,9.93
2019-04-14T16:15:06.715Z,9.37
2019-04-14T16:18:02.362Z,10.67
2019-04-14T16:20:35.489Z,11.30
2019-04-14T16:23:08.000Z,10.23
2019-04-14T16:25:58.935Z,10.70
2019-04-14T16:28:34.639Z,10.20
2019-04-14T16:31:24.160Z,9.83
2019-04-14T16:34:03.570Z,10.93
2019-04-14T16:36:34.211Z,9.10
2019-04-14T16:39:06.817Z,10.90
2019-04-14T16:41:38.941Z,11.03
2019-04-14T16:44:09.449Z,10.17
2019-04-14T16:46:40.130Z,11.47
2019-04-14T16:49:10.787Z,9.50
2019-04-14T16:51:46.511Z,8.87
2019-04-14T16:54:39.252Z,7.83
2019-04-14T16:57:31.651Z,8.17
2019-04-14T17:00:02.189Z,8.00
2019-04-14T17:02:33.575Z,8.07
2019-04-14T17:05:04.596Z,8.07
2019-04-14T17:07:36.971Z,7.87
2019-04-14T17:10:07.929Z,7.40
2019-04-14T17:12:38.809Z,7.83
2019-04-14T17:15:27.095Z,6.63
2019-04-14T17:18:12.768Z,8.30
2019-04-14T17:21:01.091Z,7.30
2019-04-14T17:23:39.746Z,6.87
2019-04-14T17:26:32.008Z,7.33
2019-04-14T17:29:33.657Z,6.97
2019-04-14T17:32:29.132Z,7.73
2019-04-14T17:35:20.014Z,7.77
2019-04-14T17:37:57.724Z,6.27
2019-04-14T17:40:46.817Z,7.30
2019-04-14T17:43:36.531Z,6.40
2019-04-14T17:46:24.889Z,6.97
2019-04-14T17:49:19.909Z,6.77
2019-04-14T17:52:10.798Z,6.67
2019-04-14T17:55:06.333Z,6.73
2019-04-14T17:58:23.411Z,6.33
2019-04-14T18:01:11.379Z,7.33
2019-04-14T18:03:55.532Z,7.30
2019-04-14T18:06:34.169Z,10.03
2019-04-14T18:09:29.030Z,9.00
2019-04-14T18:12:18.821Z,8.97
2019-04-14T18:15:24.460Z,9.30
2019-04-14T18:18:25.930Z,8.83
2019-04-14T18:20:58.874Z,9.67
2019-04-14T18:23:29.574Z,9.53
2019-04-14T18:26:00.187Z,9.80
2019-04-14T18:28:42.741Z,9.70
2019-04-14T18:31:35.273Z,9.57
2019-04-14T18:34:20.051Z,9.73
2019-04-14T18:36:55.522Z,10.07
2019-04-14T18:39:49.573Z,10.73
2019-04-14T18:42:42.278Z,10.50
2019-04-14T18:45:38.678Z,9.20
2019-04-14T18:48:20.718Z,9.67
2019-04-14T18:51:09.274Z,10.10
2019-04-14T18:53:58.750Z,9.47
2019-04-14T18:56:51.386Z,8.53
2019-04-14T18:59:46.619Z,9.30
2019-04-14T19:02:18.982Z,8.90
2019-04-14T19:04:49.497Z,8.63
2019-04-14T19:07:20.071Z,8.03
2019-04-14T19:09:51.868Z,10.13
2019-04-14T19:12:41.336Z,11.80
2019-04-14T19:15:40.233Z,10.33
2019-04-14T19:18:20.923Z,10.07
2019-04-14T19:20:57.776Z,9.13
2019-04-14T19:23:28.564Z,8.70
2019-04-14T19:25:59.067Z,9.43
2019-04-14T19:28:30.628Z,10.33
2019-04-14T19:31:01.185Z,9.70
2019-04-14T19:33:31.722Z,10.00
2019-04-14T19:36:03.146Z,10.20
2019-04-14T19:38:33.610Z,9.40
2019-04-14T19:41:04.191Z,10.17
2019-04-14T19:43:34.824Z,10.33
2019-04-14T19:46:05.321Z,9.10
2019-04-14T19:48:35.890Z,11.33
2019-04-14T19:51:06.382Z,9.80
2019-04-14T19:53:37.041Z,9.40
2019-04-14T19:56:07.533Z,9.00
2019-04-14T19:58:38.082Z,8.73
2019-04-14T20:01:08.545Z,9.77
2019-04-14T20:03:39.092Z,10.17
2019-04-14T20:06:09.574Z,9.67
2019-04-14T20:08:40.126Z,9.60
2019-04-14T20:11:10.593Z,9.50
2019-04-14T20:13:46.859Z,10.77
2019-04-14T20:16:36.330Z,9.60
2019-04-14T20:19:27.566Z,9.57
2019-04-14T20:22:08.292Z,8.97
2019-04-14T20:24:44.296Z,9.40
2019-04-14T20:27:37.001Z,9.30
2019-04-14T20:30:12.350Z,9.07
2019-04-14T20:32:43.673Z,8.13
2019-04-14T20:35:14.950Z,8.97
2019-04-14T20:37:45.424Z,8.97
2019-04-14T20:40:16.290Z,8.50
2019-04-14T20:42:46.795Z,8.53
2019-04-14T20:45:17.264Z,8.80
2019-04-14T20:47:48.314Z,8.57
2019-04-14T20:50:18.938Z,9.20
2019-04-14T20:52:51.878Z,9.07
2019-04-14T20:55:22.358Z,8.73
2019-04-14T20:57:52.999Z,9.23
2019-04-14T21:00:24.301Z,14.00
2019-04-14T21:03:12.636Z,14.80
2019-04-14T21:06:02.856Z,12.63
2019-04-14T21:09:07.654Z,10.73
2019-04-14T21:12:01.973Z,10.47
2019-04-14T21:14:47.080Z,9.63
2019-04-14T21:17:26.949Z,9.30
2019-04-14T21:20:06.808Z,9.30
2019-04-14T21:22:45.654Z,9.57
2019-04-14T21:25:40.692Z,9.80
2019-04-14T21:28:28.416Z,10.57
2019-04-14T21:31:23.602Z,9.43
2019-04-14T21:34:02.971Z,10.10
2019-04-14T21:36:52.362Z,9.90
2019-04-14T21:39:36.486Z,9.57
2019-04-14T21:42:07.334Z,9.37
2019-04-14T21:44:37.787Z,10.33
2019-04-14T21:47:08.247Z,9.20
2019-04-14T21:49:39.759Z,10.63
2019-04-14T21:52:23.952Z,10.27
2019-04-14T21:54:55.079Z,10.63
2019-04-14T21:57:47.535Z,10.40
2019-04-14T22:00:27.963Z,9.70
2019-04-14T22:03:19.812Z,10.27
2019-04-14T22:05:58.402Z,9.73
2019-04-14T22:08:32.182Z,10.23
2019-04-14T22:11:06.472Z,10.67
2019-04-14T22:13:37.065Z,10.53
2019-04-14T22:16:09.130Z,9.77
2019-04-14T22:18:39.575Z,10.00
2019-04-14T22:21:10.113Z,10.67
2019-04-14T22:23:40.607Z,10.33
2019-04-14T22:26:11.223Z,10.50
2019-04-14T22:28:41.717Z,10.47
2019-04-14T22:31:12.217Z,10.30
2019-04-14T22:33:42.681Z,10.53
2019-04-14T22:36:13.175Z,10.87
2019-04-14T22:38:43.738Z,10.97
2019-04-14T22:41:14.235Z,11.80
2019-04-14T22:43:44.745Z,11.13
2019-04-14T22:46:15.240Z,10.97
2019-04-14T22:48:45.723Z,11.90
2019-04-14T22:51:16.270Z,11.23
2019-04-14T22:53:46.730Z,10.53
2019-04-14T22:56:17.436Z,11.90
2019-04-14T22:58:48.065Z,11.43
2019-04-14T23:01:25.744Z,11.57
2019-04-14T23:04:13.802Z,10.57
2019-04-14T23:07:06.069Z,10.70
2019-04-14T23:09:50.179Z,10.80
2019-04-14T23:12:28.359Z,11.60
2019-04-14T23:15:23.850Z,12.17
2019-04-14T23:18:13.443Z,11.53
2019-04-14T23:21:05.918Z,11.53
2019-04-14T23:23:55.079Z,11.63
2019-04-14T23:26:25.754Z,11.67
2019-04-14T23:28:56.303Z,11.47
2019-04-14T23:31:26.752Z,11.43
2019-04-14T23:33:57.400Z,11.57
2019-04-14T23:36:27.982Z,12.20
2019-04-14T23:38:58.511Z,11.60
2019-04-14T23:41:28.959Z,11.67
2019-04-14T23:43:59.478Z,11.00
2019-04-14T23:46:29.993Z,11.37
2019-04-14T23:49:00.504Z,11.63
2019-04-14T23:51:31.029Z,11.63
2019-04-14T23:54:01.560Z,11.47
2019-04-14T23:56:32.212Z,12.80
2019-04-14T23:59:02.760Z,10.87
